Time;durP1;ratioP1;P1;durP2;ratioP2;P2;SDS_P1;SDS_P2;PMS_P1;PMS_P2;Temp;Humidity;BMP_temperature;BMP_pressure;BME280_temperature;BME280_humidity;BME280_pressure;Samples;Min_cycle;Max_cycle;Signal;HPM_P1;HPM_P2
2023/06/27 00:00:46;;;;;;;8.10;1.37;;;;;;;;;;4974364;28;20559;-80
2023/06/27 00:03:12;;;;;;;5.90;1.20;;;;;;;;;;4974265;28;20933;-79
2023/06/27 00:05:38;;;;;;;5.93;1.40;;;;;;;;;;4974301;28;20458;-81
2023/06/27 00:08:06;;;;;;;8.63;2.20;;;;;;;;;;4974275;28;20503;-86
2023/06/27 00:10:32;;;;;;;5.53;1.00;;;;;;;;;;4973860;28;20441;-83
2023/06/27 00:12:58;;;;;;;5.40;1.97;;;;;;;;;;4974123;28;20418;-80
2023/06/27 00:15:26;;;;;;;8.83;0.97;;;;;;;;;;4974109;28;20855;-80
2023/06/27 00:17:53;;;;;;;6.90;1.53;;;;;;;;;;4973898;28;20481;-80
2023/06/27 00:20:19;;;;;;;3.00;0.83;;;;;;;;;;4975710;28;20803;-80
2023/06/27 00:22:48;;;;;;;5.53;1.03;;;;;;;;;;4978112;28;20426;-80
2023/06/27 00:25:14;;;;;;;9.70;1.33;;;;;;;;;;4977743;28;20440;-85
2023/06/27 00:27:40;;;;;;;6.90;1.27;;;;;;;;;;4978111;28;20416;-81
2023/06/27 00:30:06;;;;;;;4.17;1.13;;;;;;;;;;4978003;28;20419;-81
2023/06/27 00:32:32;;;;;;;7.57;1.50;;;;;;;;;;4977970;28;20497;-82
2023/06/27 00:34:59;;;;;;;9.47;1.27;;;;;;;;;;4977791;28;20426;-78
2023/06/27 00:37:24;;;;;;;4.37;1.07;;;;;;;;;;4983855;28;20560;-78
2023/06/27 00:39:50;;;;;;;6.03;1.57;;;;;;;;;;4982029;28;20516;-83
2023/06/27 00:42:16;;;;;;;5.93;1.57;;;;;;;;;;4977838;28;20233;-77
2023/06/27 00:44:42;;;;;;;4.13;1.47;;;;;;;;;;4977809;28;20449;-78
2023/06/27 00:47:08;;;;;;;6.60;2.37;;;;;;;;;;4977679;28;20750;-78
2023/06/27 00:49:35;;;;;;;10.00;2.13;;;;;;;;;;4977730;28;20412;-79
2023/06/27 00:52:01;;;;;;;4.07;0.77;;;;;;;;;;4977514;28;20445;-78
2023/06/27 00:54:27;;;;;;;9.20;2.30;;;;;;;;;;4977154;28;20915;-79
2023/06/27 00:56:54;;;;;;;3.63;0.73;;;;;;;;;;4977462;28;20483;-79
2023/06/27 00:59:20;;;;;;;8.40;2.13;;;;;;;;;;4977512;28;20184;-78
2023/06/27 01:01:46;;;;;;;3.90;1.43;;;;;;;;;;4977430;28;20452;-78
2023/06/27 01:04:13;;;;;;;5.10;1.20;;;;;;;;;;4977379;28;20418;-81
2023/06/27 01:07:02;;;;;;;3.23;1.00;;;;;;;;;;4977357;28;20454;-78
2023/06/27 01:09:33;;;;;;;8.00;1.30;;;;;;;;;;4977049;28;20436;-84
2023/06/27 01:12:04;;;;;;;3.97;0.90;;;;;;;;;;4977159;28;20776;-83
2023/06/27 01:14:31;;;;;;;4.90;0.77;;;;;;;;;;4977272;28;20416;-78
2023/06/27 01:16:57;;;;;;;4.20;0.70;;;;;;;;;;4976872;28;20486;-85
2023/06/27 01:19:26;;;;;;;3.90;1.17;;;;;;;;;;4977050;28;20417;-80
2023/06/27 01:21:57;;;;;;;4.77;0.80;;;;;;;;;;4977098;28;20468;-80
2023/06/27 01:24:25;;;;;;;4.70;0.70;;;;;;;;;;4976615;28;20763;-84
2023/06/27 01:26:51;;;;;;;3.00;0.67;;;;;;;;;;4976763;28;20418;-79
2023/06/27 01:29:17;;;;;;;4.10;1.53;;;;;;;;;;4976951;28;20915;-80
2023/06/27 01:31:50;;;;;;;2.97;0.70;;;;;;;;;;4975960;28;20416;-80
2023/06/27 01:34:21;;;;;;;3.67;0.93;;;;;;;;;;4976906;28;20434;-82
2023/06/27 01:37:06;;;;;;;8.37;1.87;;;;;;;;;;4978873;28;20483;-84
2023/06/27 01:39:42;;;;;;;7.10;1.10;;;;;;;;;;4988836;28;20460;-79
2023/06/27 01:42:14;;;;;;;2.57;0.73;;;;;;;;;;4996239;28;20414;-84
2023/06/27 01:44:40;;;;;;;6.13;2.10;;;;;;;;;;4996108;28;20425;-80
2023/06/27 01:47:07;;;;;;;7.40;0.93;;;;;;;;;;4996246;28;20499;-81
2023/06/27 01:49:33;;;;;;;5.60;0.87;;;;;;;;;;4995994;28;20478;-78
2023/06/27 01:51:59;;;;;;;6.00;0.83;;;;;;;;;;4996139;28;20414;-77
2023/06/27 01:54:24;;;;;;;7.80;1.30;;;;;;;;;;4995748;28;20427;-77
2023/06/27 01:56:51;;;;;;;5.57;1.47;;;;;;;;;;4995863;28;20221;-77
2023/06/27 01:59:16;;;;;;;4.50;1.00;;;;;;;;;;4995882;28;20412;-76
2023/06/27 02:01:42;;;;;;;3.87;0.80;;;;;;;;;;4994696;28;20413;-76
2023/06/27 02:04:08;;;;;;;6.00;1.43;;;;;;;;;;4995936;28;20185;-78
2023/06/27 02:06:34;;;;;;;6.00;1.73;;;;;;;;;;4995857;28;20419;-76
2023/06/27 02:09:00;;;;;;;2.37;1.17;;;;;;;;;;4995461;28;20304;-76
2023/06/27 02:11:26;;;;;;;6.73;1.57;;;;;;;;;;4995599;28;20818;-76
2023/06/27 02:13:52;;;;;;;5.10;1.73;;;;;;;;;;4995693;28;20414;-77
2023/06/27 02:16:18;;;;;;;8.73;1.47;;;;;;;;;;4995392;28;20987;-76
2023/06/27 02:18:44;;;;;;;7.60;1.53;;;;;;;;;;4995629;28;20889;-76
2023/06/27 02:21:10;;;;;;;4.13;1.27;;;;;;;;;;4995589;28;20412;-76
2023/06/27 02:23:36;;;;;;;9.30;0.77;;;;;;;;;;4995241;28;20449;-76
2023/06/27 02:26:03;;;;;;;5.33;1.00;;;;;;;;;;4995413;28;20410;-76
2023/06/27 02:28:29;;;;;;;5.33;1.40;;;;;;;;;;4995437;28;20586;-76
2023/06/27 02:30:55;;;;;;;7.93;1.17;;;;;;;;;;4995375;28;20475;-76
2023/06/27 02:33:21;;;;;;;6.00;1.57;;;;;;;;;;4995309;28;20775;-76
2023/06/27 02:35:47;;;;;;;5.10;0.90;;;;;;;;;;4995256;28;20468;-76
2023/06/27 02:38:13;;;;;;;6.23;1.23;;;;;;;;;;4995050;28;20445;-78
2023/06/27 02:40:39;;;;;;;4.50;0.63;;;;;;;;;;4995066;28;20187;-77
2023/06/27 02:43:06;;;;;;;6.17;1.70;;;;;;;;;;4995035;28;20551;-77
2023/06/27 02:45:32;;;;;;;8.00;1.00;;;;;;;;;;4995067;28;20514;-77
2023/06/27 02:47:58;;;;;;;4.07;0.93;;;;;;;;;;4995096;28;20500;-77
2023/06/27 02:50:24;;;;;;;5.03;1.00;;;;;;;;;;4994995;28;20175;-77
2023/06/27 02:52:49;;;;;;;7.23;1.17;;;;;;;;;;4994985;28;20177;-76
2023/06/27 02:55:15;;;;;;;3.60;0.80;;;;;;;;;;4994469;28;20542;-76
2023/06/27 02:57:41;;;;;;;5.60;0.80;;;;;;;;;;4994841;28;20183;-77
2023/06/27 03:00:08;;;;;;;3.50;1.30;;;;;;;;;;4994821;28;20409;-76
2023/06/27 03:02:34;;;;;;;2.60;0.67;;;;;;;;;;4994774;28;20453;-76
2023/06/27 03:05:00;;;;;;;4.30;0.73;;;;;;;;;;4994676;28;20424;-76
2023/06/27 03:07:25;;;;;;;4.43;1.27;;;;;;;;;;4994693;28;20413;-77
2023/06/27 03:09:51;;;;;;;6.13;1.30;;;;;;;;;;4994058;28;20503;-76
2023/06/27 03:12:17;;;;;;;3.97;0.90;;;;;;;;;;4994528;28;20448;-77
2023/06/27 03:14:43;;;;;;;7.30;1.43;;;;;;;;;;4994581;28;20419;-77
2023/06/27 03:17:09;;;;;;;4.63;1.70;;;;;;;;;;4994247;28;20533;-76
2023/06/27 03:19:35;;;;;;;2.67;0.63;;;;;;;;;;4994453;28;20451;-77
2023/06/27 03:22:02;;;;;;;4.30;1.17;;;;;;;;;;4994452;28;20400;-77
2023/06/27 03:24:28;;;;;;;4.30;0.70;;;;;;;;;;4993971;28;20412;-76
2023/06/27 03:26:53;;;;;;;5.60;0.90;;;;;;;;;;4994252;28;20446;-77
2023/06/27 03:29:19;;;;;;;4.40;0.57;;;;;;;;;;4994356;28;20512;-77
2023/06/27 03:31:45;;;;;;;6.97;1.00;;;;;;;;;;4994286;28;20540;-77
2023/06/27 03:34:11;;;;;;;4.23;0.87;;;;;;;;;;4994192;28;20939;-77
2023/06/27 03:36:37;;;;;;;7.67;1.40;;;;;;;;;;4994109;28;20215;-76
2023/06/27 03:39:04;;;;;;;4.20;1.27;;;;;;;;;;4993766;28;20576;-76
2023/06/27 03:41:30;;;;;;;4.47;1.17;;;;;;;;;;4994146;28;20199;-77
2023/06/27 03:43:56;;;;;;;4.67;0.80;;;;;;;;;;4994083;28;20956;-76
2023/06/27 03:46:24;;;;;;;7.40;0.87;;;;;;;;;;4994095;28;20487;-76
2023/06/27 03:48:54;;;;;;;7.97;0.90;;;;;;;;;;4994049;28;20501;-77
2023/06/27 03:51:20;;;;;;;2.70;0.60;;;;;;;;;;4993369;28;20944;-77
2023/06/27 03:53:45;;;;;;;5.73;0.50;;;;;;;;;;4993459;28;20436;-77
2023/06/27 03:56:11;;;;;;;2.90;0.90;;;;;;;;;;4993424;28;20983;-77
2023/06/27 03:58:37;;;;;;;4.23;1.00;;;;;;;;;;4993881;28;20182;-77
2023/06/27 04:01:03;;;;;;;3.93;0.67;;;;;;;;;;4993839;28;20524;-77
2023/06/27 04:03:29;;;;;;;3.43;0.60;;;;;;;;;;4993813;28;20248;-77
2023/06/27 04:05:55;;;;;;;5.00;1.23;;;;;;;;;;4993828;28;20500;-77
2023/06/27 04:08:21;;;;;;;6.23;1.07;;;;;;;;;;4992863;28;20188;-79
2023/06/27 04:10:47;;;;;;;3.07;0.87;;;;;;;;;;4993651;28;20191;-79
2023/06/27 04:13:13;;;;;;;5.80;0.90;;;;;;;;;;4993718;28;20430;-80
2023/06/27 04:15:41;;;;;;;7.00;0.83;;;;;;;;;;4993573;28;20880;-78
2023/06/27 04:18:07;;;;;;;9.17;0.90;;;;;;;;;;4993463;28;20464;-78
2023/06/27 04:20:33;;;;;;;1.37;0.90;;;;;;;;;;4992728;28;21151;-79
2023/06/27 04:22:59;;;;;;;2.70;0.57;;;;;;;;;;4992179;28;20474;-79
2023/06/27 04:25:26;;;;;;;3.30;0.53;;;;;;;;;;4993492;28;20421;-79
2023/06/27 04:27:52;;;;;;;2.80;0.57;;;;;;;;;;4992376;28;20635;-79
2023/06/27 04:30:18;;;;;;;4.47;0.67;;;;;;;;;;4993549;28;20423;-79
2023/06/27 04:32:48;;;;;;;3.03;0.60;;;;;;;;;;4993556;28;20417;-79
2023/06/27 04:35:17;;;;;;;5.90;0.63;;;;;;;;;;4993458;28;20489;-80
2023/06/27 04:37:43;;;;;;;1.67;0.77;;;;;;;;;;4993466;28;20807;-80
2023/06/27 04:40:11;;;;;;;3.47;0.90;;;;;;;;;;4993096;28;20423;-80
2023/06/27 04:42:37;;;;;;;6.93;0.80;;;;;;;;;;4993498;28;20174;-79
2023/06/27 04:45:03;;;;;;;2.30;1.10;;;;;;;;;;4993059;28;20432;-77
2023/06/27 04:47:29;;;;;;;1.17;0.40;;;;;;;;;;4993352;28;20420;-79
2023/06/27 04:49:55;;;;;;;2.73;1.10;;;;;;;;;;4993359;28;20778;-80
2023/06/27 04:52:21;;;;;;;2.00;0.43;;;;;;;;;;4993286;28;20527;-80
2023/06/27 04:54:49;;;;;;;3.30;0.50;;;;;;;;;;4992977;28;20615;-79
2023/06/27 04:57:15;;;;;;;2.50;0.50;;;;;;;;;;4993206;28;20208;-80
2023/06/27 04:59:40;;;;;;;3.73;0.67;;;;;;;;;;4993267;28;20885;-78
2023/06/27 05:02:07;;;;;;;1.70;0.70;;;;;;;;;;4993245;28;20418;-79
2023/06/27 05:04:33;;;;;;;8.20;0.90;;;;;;;;;;4993177;28;20181;-79
2023/06/27 05:06:59;;;;;;;2.00;0.43;;;;;;;;;;4993849;28;21254;-78
2023/06/27 05:09:25;;;;;;;1.80;0.80;;;;;;;;;;4996561;28;20188;-81
2023/06/27 05:11:51;;;;;;;1.87;0.60;;;;;;;;;;4996797;28;20535;-79
2023/06/27 05:14:17;;;;;;;3.57;0.40;;;;;;;;;;4996859;28;20185;-80
2023/06/27 05:16:43;;;;;;;5.70;0.63;;;;;;;;;;4996367;28;20381;-77
2023/06/27 05:19:09;;;;;;;3.43;0.50;;;;;;;;;;4995396;28;20567;-79
2023/06/27 05:21:35;;;;;;;5.60;1.20;;;;;;;;;;4996629;28;20221;-80
2023/06/27 05:24:04;;;;;;;3.17;0.70;;;;;;;;;;4996188;28;20414;-80
2023/06/27 05:26:30;;;;;;;3.90;0.63;;;;;;;;;;4996547;28;20178;-79
2023/06/27 05:28:57;;;;;;;2.70;0.60;;;;;;;;;;4996314;28;20409;-79
2023/06/27 05:31:26;;;;;;;5.40;1.37;;;;;;;;;;4996404;28;20452;-78
2023/06/27 05:33:53;;;;;;;2.60;1.40;;;;;;;;;;4996367;28;20416;-80
2023/06/27 05:36:18;;;;;;;3.33;1.30;;;;;;;;;;4996244;28;20476;-82
2023/06/27 05:38:47;;;;;;;4.03;1.50;;;;;;;;;;4996042;28;20764;-81
2023/06/27 05:41:17;;;;;;;4.90;1.93;;;;;;;;;;4996288;28;20418;-81
2023/06/27 05:43:46;;;;;;;5.00;2.10;;;;;;;;;;4996274;28;20462;-81
2023/06/27 05:46:12;;;;;;;5.27;1.47;;;;;;;;;;4996343;28;20876;-82
2023/06/27 05:48:38;;;;;;;11.23;2.10;;;;;;;;;;4996394;28;20508;-81
2023/06/27 05:51:04;;;;;;;5.00;1.40;;;;;;;;;;4995992;28;20452;-81
2023/06/27 05:53:30;;;;;;;2.80;1.40;;;;;;;;;;4995739;28;20413;-80
2023/06/27 05:55:56;;;;;;;4.07;1.83;;;;;;;;;;4995902;28;20482;-81
2023/06/27 05:58:22;;;;;;;2.20;1.30;;;;;;;;;;4995930;28;20514;-81
2023/06/27 06:00:48;;;;;;;2.50;1.37;;;;;;;;;;4995956;28;20252;-81
2023/06/27 06:03:14;;;;;;;6.50;1.10;;;;;;;;;;4995999;28;20742;-81
2023/06/27 06:05:40;;;;;;;2.50;1.37;;;;;;;;;;4995800;28;20174;-80
2023/06/27 06:08:06;;;;;;;6.10;2.03;;;;;;;;;;4995418;28;20473;-78
2023/06/27 06:10:32;;;;;;;4.97;1.30;;;;;;;;;;4995877;28;20247;-81
2023/06/27 06:12:57;;;;;;;2.50;0.83;;;;;;;;;;4995702;28;20180;-81
2023/06/27 06:15:26;;;;;;;7.07;2.10;;;;;;;;;;4995531;28;20470;-80
2023/06/27 06:17:52;;;;;;;8.20;1.27;;;;;;;;;;4995192;28;20705;-80
2023/06/27 06:20:18;;;;;;;3.30;1.20;;;;;;;;;;4995485;28;20405;-80
2023/06/27 06:22:45;;;;;;;1.57;0.60;;;;;;;;;;4995119;28;20203;-79
2023/06/27 06:25:11;;;;;;;2.23;0.73;;;;;;;;;;4995354;28;20408;-79
2023/06/27 06:27:37;;;;;;;4.63;0.90;;;;;;;;;;4995143;28;20442;-79
2023/06/27 06:30:03;;;;;;;2.60;1.00;;;;;;;;;;4995411;28;20177;-80
2023/06/27 06:32:29;;;;;;;4.13;0.67;;;;;;;;;;4995368;28;20192;-79
2023/06/27 06:34:55;;;;;;;3.17;0.90;;;;;;;;;;4995191;28;20740;-78
2023/06/27 06:37:23;;;;;;;5.00;1.27;;;;;;;;;;4995125;28;20922;-79
2023/06/27 06:39:49;;;;;;;2.53;0.33;;;;;;;;;;4994615;28;20256;-79
2023/06/27 06:42:15;;;;;;;2.33;0.40;;;;;;;;;;4994947;28;20971;-79
2023/06/27 06:44:41;;;;;;;3.00;0.77;;;;;;;;;;4994099;28;20254;-79
2023/06/27 06:47:07;;;;;;;3.27;0.40;;;;;;;;;;4995052;28;20435;-80
2023/06/27 06:49:33;;;;;;;1.73;0.50;;;;;;;;;;4995002;28;20474;-78
2023/06/27 06:51:59;;;;;;;2.53;0.50;;;;;;;;;;4994760;28;20513;-81
2023/06/27 06:54:25;;;;;;;2.93;0.40;;;;;;;;;;4994534;28;20490;-79
2023/06/27 06:56:51;;;;;;;5.27;0.53;;;;;;;;;;4994757;28;20226;-80
2023/06/27 06:59:16;;;;;;;3.40;0.63;;;;;;;;;;4994881;28;20184;-78
2023/06/27 07:01:43;;;;;;;0.97;0.50;;;;;;;;;;4994805;28;20538;-78
2023/06/27 07:04:09;;;;;;;5.10;0.97;;;;;;;;;;4994678;28;20433;-80
2023/06/27 07:06:35;;;;;;;4.57;0.50;;;;;;;;;;4994690;28;20420;-80
2023/06/27 07:09:01;;;;;;;1.90;0.43;;;;;;;;;;4994288;28;20206;-81
2023/06/27 07:11:27;;;;;;;1.87;0.30;;;;;;;;;;4994602;28;20435;-82
2023/06/27 07:13:53;;;;;;;1.47;0.50;;;;;;;;;;4994471;28;20417;-78
2023/06/27 07:16:19;;;;;;;1.43;0.20;;;;;;;;;;4994109;28;20980;-78
2023/06/27 07:18:45;;;;;;;1.70;0.40;;;;;;;;;;4994449;28;20184;-83
2023/06/27 07:21:11;;;;;;;4.03;0.70;;;;;;;;;;4994462;28;20177;-79
2023/06/27 07:23:37;;;;;;;2.63;1.13;;;;;;;;;;4994166;28;20410;-84
2023/06/27 07:26:04;;;;;;;2.47;0.60;;;;;;;;;;4994325;28;20424;-83
2023/06/27 07:28:30;;;;;;;3.77;0.40;;;;;;;;;;4994350;28;20461;-84
2023/06/27 07:30:56;;;;;;;2.97;0.50;;;;;;;;;;4993563;28;20889;-83
2023/06/27 07:33:22;;;;;;;3.73;0.50;;;;;;;;;;4994487;28;20441;-84
2023/06/27 07:35:48;;;;;;;5.43;0.70;;;;;;;;;;4994365;28;20477;-85
2023/06/27 07:38:16;;;;;;;1.87;0.20;;;;;;;;;;4994174;28;20407;-81
2023/06/27 07:40:42;;;;;;;2.80;0.60;;;;;;;;;;4994171;28;20945;-81
2023/06/27 07:43:08;;;;;;;2.70;0.33;;;;;;;;;;4994102;28;20411;-80
2023/06/27 07:45:34;;;;;;;2.03;0.40;;;;;;;;;;4994018;28;20179;-81
2023/06/27 07:47:59;;;;;;;2.43;0.70;;;;;;;;;;4993876;28;20647;-84
2023/06/27 07:50:25;;;;;;;5.10;0.97;;;;;;;;;;4993937;28;20186;-83
2023/06/27 07:52:51;;;;;;;2.50;0.43;;;;;;;;;;4993482;28;20183;-86
2023/06/27 07:55:17;;;;;;;5.70;0.63;;;;;;;;;;4993835;28;20798;-82
2023/06/27 07:57:43;;;;;;;2.43;0.60;;;;;;;;;;4993894;28;20190;-75
2023/06/27 08:00:10;;;;;;;2.30;0.40;;;;;;;;;;4993814;28;20510;-82
2023/06/27 08:02:36;;;;;;;3.30;0.70;;;;;;;;;;4993827;28;20468;-82
2023/06/27 08:05:02;;;;;;;3.47;0.87;;;;;;;;;;4993762;28;20414;-77
2023/06/27 08:07:28;;;;;;;4.03;0.50;;;;;;;;;;4993462;28;20418;-77
2023/06/27 08:09:54;;;;;;;2.00;0.30;;;;;;;;;;4993773;28;20418;-77
2023/06/27 08:12:20;;;;;;;3.90;0.83;;;;;;;;;;4993727;28;20187;-81
2023/06/27 08:14:47;;;;;;;2.50;0.93;;;;;;;;;;4993622;28;20179;-81
2023/06/27 08:17:13;;;;;;;5.30;0.77;;;;;;;;;;4993333;28;20489;-78
2023/06/27 08:19:39;;;;;;;2.40;0.50;;;;;;;;;;4993628;28;20416;-79
2023/06/27 08:22:05;;;;;;;2.20;0.43;;;;;;;;;;4993659;28;20650;-78
2023/06/27 08:24:31;;;;;;;4.83;0.40;;;;;;;;;;4993252;28;20177;-77
2023/06/27 08:26:57;;;;;;;2.63;0.30;;;;;;;;;;4993552;28;20517;-78
2023/06/27 08:29:26;;;;;;;1.80;0.43;;;;;;;;;;4993452;28;20417;-82
2023/06/27 08:31:58;;;;;;;1.37;0.50;;;;;;;;;;4993510;28;20422;-78
2023/06/27 08:34:24;;;;;;;6.97;1.70;;;;;;;;;;4993345;28;21004;-81
2023/06/27 08:36:49;;;;;;;3.93;0.60;;;;;;;;;;4993354;28;20470;-78
2023/06/27 08:39:16;;;;;;;5.17;0.80;;;;;;;;;;4992995;28;20624;-81
2023/06/27 08:41:42;;;;;;;5.10;0.43;;;;;;;;;;4995523;28;20427;-83
2023/06/27 08:44:08;;;;;;;5.17;0.60;;;;;;;;;;4997205;28;20170;-81
2023/06/27 08:46:37;;;;;;;2.77;0.50;;;;;;;;;;4997167;28;20500;-82
2023/06/27 08:49:04;;;;;;;3.20;0.30;;;;;;;;;;4997178;28;20762;-82
2023/06/27 08:51:33;;;;;;;2.33;0.60;;;;;;;;;;4997183;28;20435;-78
2023/06/27 08:54:04;;;;;;;2.43;0.70;;;;;;;;;;4996798;28;20968;-77
2023/06/27 08:56:32;;;;;;;2.17;0.57;;;;;;;;;;4996922;28;20481;-83
2023/06/27 08:59:07;;;;;;;2.47;0.50;;;;;;;;;;4997055;28;20422;-82
2023/06/27 09:01:34;;;;;;;2.03;0.77;;;;;;;;;;4996962;28;20460;-82
2023/06/27 09:04:04;;;;;;;2.30;0.47;;;;;;;;;;4996943;28;20421;-78
2023/06/27 09:06:30;;;;;;;4.17;0.40;;;;;;;;;;4996675;28;20468;-83
2023/06/27 09:08:56;;;;;;;1.13;0.50;;;;;;;;;;4996466;28;20411;-78
2023/06/27 09:11:23;;;;;;;2.10;0.50;;;;;;;;;;4996873;28;20403;-81
2023/06/27 09:13:49;;;;;;;3.30;0.50;;;;;;;;;;4996644;28;20642;-76
2023/06/27 09:16:15;;;;;;;1.23;0.30;;;;;;;;;;4996519;28;20473;-82
2023/06/27 09:18:41;;;;;;;1.03;0.33;;;;;;;;;;4996949;28;20990;-77
2023/06/27 09:21:07;;;;;;;1.87;0.30;;;;;;;;;;4996631;28;20183;-78
2023/06/27 09:23:33;;;;;;;1.37;0.30;;;;;;;;;;4996359;28;20461;-82
2023/06/27 09:26:05;;;;;;;1.40;0.40;;;;;;;;;;4996612;28;20407;-81
2023/06/27 09:28:31;;;;;;;3.37;0.40;;;;;;;;;;4996280;28;20411;-79
2023/06/27 09:30:58;;;;;;;2.50;0.20;;;;;;;;;;4996513;28;20425;-81
2023/06/27 09:33:25;;;;;;;1.00;0.40;;;;;;;;;;4996541;28;20534;-80
2023/06/27 09:35:51;;;;;;;3.93;0.60;;;;;;;;;;4996382;28;20521;-82
2023/06/27 09:38:19;;;;;;;1.80;0.53;;;;;;;;;;4995786;28;20419;-80
2023/06/27 09:40:45;;;;;;;0.97;0.30;;;;;;;;;;4996311;28;20671;-77
2023/06/27 09:43:13;;;;;;;1.17;0.30;;;;;;;;;;4996147;28;20420;-82
2023/06/27 09:45:42;;;;;;;1.03;0.30;;;;;;;;;;4995849;28;20668;-81
2023/06/27 09:48:10;;;;;;;2.70;0.53;;;;;;;;;;4995447;28;20478;-80
2023/06/27 09:50:36;;;;;;;3.30;0.67;;;;;;;;;;4996391;28;20904;-78
2023/06/27 09:53:03;;;;;;;3.57;0.40;;;;;;;;;;4995250;28;20411;-82
2023/06/27 09:55:29;;;;;;;3.47;0.40;;;;;;;;;;4996129;28;20745;-84
2023/06/27 09:57:55;;;;;;;4.80;0.50;;;;;;;;;;4996026;28;20509;-78
2023/06/27 10:00:22;;;;;;;2.83;0.60;;;;;;;;;;4995992;28;20418;-77
2023/06/27 10:02:48;;;;;;;1.63;0.30;;;;;;;;;;4996078;28;20415;-81
2023/06/27 10:05:14;;;;;;;2.10;0.30;;;;;;;;;;4995959;28;20931;-81
2023/06/27 10:07:41;;;;;;;2.40;0.60;;;;;;;;;;4990425;28;20428;-82
2023/06/27 10:10:07;;;;;;;1.40;0.40;;;;;;;;;;4976416;28;20794;-83
2023/06/27 10:12:33;;;;;;;2.47;0.20;;;;;;;;;;4976303;28;20466;-79
2023/06/27 10:14:59;;;;;;;1.33;0.20;;;;;;;;;;4976206;28;20416;-78
2023/06/27 10:17:26;;;;;;;1.90;0.50;;;;;;;;;;4976054;28;20483;-79
2023/06/27 10:19:53;;;;;;;1.87;0.30;;;;;;;;;;4976210;28;20773;-80
2023/06/27 10:22:21;;;;;;;3.10;0.43;;;;;;;;;;4989429;28;20484;-79
2023/06/27 10:24:48;;;;;;;2.17;0.20;;;;;;;;;;4995292;28;20419;-79
2023/06/27 10:27:20;;;;;;;1.00;0.40;;;;;;;;;;4995386;28;20782;-79
2023/06/27 10:29:46;;;;;;;1.70;0.30;;;;;;;;;;4995145;28;20408;-82
2023/06/27 10:32:16;;;;;;;1.40;0.20;;;;;;;;;;4995418;28;20418;-82
2023/06/27 10:34:43;;;;;;;1.47;0.50;;;;;;;;;;4995383;28;20446;-81
2023/06/27 10:37:10;;;;;;;1.33;0.30;;;;;;;;;;4994977;28;20825;-78
2023/06/27 10:39:37;;;;;;;2.20;0.20;;;;;;;;;;4995007;28;20411;-83
2023/06/27 10:42:06;;;;;;;2.20;0.40;;;;;;;;;;4994752;28;20423;-79
2023/06/27 10:44:35;;;;;;;3.13;0.20;;;;;;;;;;4995163;28;20911;-81
2023/06/27 10:47:16;;;;;;;1.10;0.30;;;;;;;;;;4995175;28;20447;-80
2023/06/27 10:49:46;;;;;;;0.90;0.27;;;;;;;;;;4994991;28;20418;-78
2023/06/27 10:52:19;;;;;;;1.00;0.20;;;;;;;;;;4986119;28;20432;-82
2023/06/27 10:54:47;;;;;;;2.20;0.37;;;;;;;;;;4975624;28;20454;-81
2023/06/27 10:57:18;;;;;;;3.10;0.50;;;;;;;;;;4975372;28;20478;-78
2023/06/27 10:59:47;;;;;;;2.17;0.33;;;;;;;;;;4975551;28;20920;-82
2023/06/27 11:02:13;;;;;;;2.67;0.73;;;;;;;;;;4975476;28;20419;-82
2023/06/27 11:04:41;;;;;;;4.73;1.20;;;;;;;;;;4974384;28;20416;-80
2023/06/27 11:07:12;;;;;;;1.60;0.30;;;;;;;;;;4975000;28;20434;-80
2023/06/27 11:09:39;;;;;;;3.07;0.30;;;;;;;;;;4975337;28;20897;-81
2023/06/27 11:12:08;;;;;;;1.50;0.23;;;;;;;;;;4975240;28;20415;-78
2023/06/27 11:14:35;;;;;;;3.23;0.40;;;;;;;;;;4975163;28;20407;-78
2023/06/27 11:17:03;;;;;;;1.73;0.47;;;;;;;;;;4974925;28;20834;-78
2023/06/27 11:19:29;;;;;;;1.93;0.20;;;;;;;;;;4975111;28;20519;-79
2023/06/27 11:21:57;;;;;;;2.40;0.43;;;;;;;;;;4974722;28;20507;-86
2023/06/27 11:24:23;;;;;;;7.23;0.80;;;;;;;;;;4975067;28;20420;-84
2023/06/27 11:26:52;;;;;;;4.00;0.80;;;;;;;;;;4975016;28;20423;-80
2023/06/27 11:29:18;;;;;;;2.10;0.63;;;;;;;;;;4974849;28;20474;-78
2023/06/27 11:31:44;;;;;;;4.20;0.30;;;;;;;;;;4974815;28;20478;-77
2023/06/27 11:34:14;;;;;;;3.63;0.40;;;;;;;;;;4974893;28;20423;-78
2023/06/27 11:36:40;;;;;;;2.47;0.20;;;;;;;;;;4981467;28;20270;-78
2023/06/27 11:39:06;;;;;;;0.90;0.20;;;;;;;;;;4993451;28;20414;-78
2023/06/27 11:41:32;;;;;;;1.70;0.20;;;;;;;;;;4993761;28;20190;-79
2023/06/27 11:43:58;;;;;;;2.60;0.30;;;;;;;;;;4993617;28;20780;-78
2023/06/27 11:46:25;;;;;;;1.03;0.20;;;;;;;;;;4993675;28;20263;-78
2023/06/27 11:48:51;;;;;;;1.53;0.67;;;;;;;;;;4993881;28;20182;-78
2023/06/27 11:51:17;;;;;;;3.33;0.30;;;;;;;;;;4993785;28;20503;-78
2023/06/27 11:53:50;;;;;;;1.73;0.30;;;;;;;;;;4993559;28;20774;-78
2023/06/27 11:56:17;;;;;;;1.50;0.63;;;;;;;;;;4993709;28;20825;-78
2023/06/27 11:58:50;;;;;;;1.67;0.30;;;;;;;;;;4993934;28;20419;-78
2023/06/27 12:01:16;;;;;;;1.63;0.20;;;;;;;;;;4992541;28;20802;-78
2023/06/27 12:03:49;;;;;;;5.40;0.70;;;;;;;;;;4993636;28;20751;-78
2023/06/27 12:06:25;;;;;;;1.33;0.40;;;;;;;;;;4993509;28;20407;-78
2023/06/27 12:08:52;;;;;;;1.50;0.33;;;;;;;;;;4993296;28;20481;-78
2023/06/27 12:11:17;;;;;;;3.60;0.80;;;;;;;;;;4993812;28;20414;-78
2023/06/27 12:13:43;;;;;;;2.10;0.40;;;;;;;;;;4993672;28;20896;-78
2023/06/27 12:16:22;;;;;;;3.33;0.67;;;;;;;;;;4992663;28;20211;-79
2023/06/27 12:18:48;;;;;;;3.50;0.53;;;;;;;;;;4993695;28;20978;-78
2023/06/27 12:21:14;;;;;;;2.80;0.70;;;;;;;;;;4993731;28;20441;-77
2023/06/27 12:23:40;;;;;;;1.10;0.37;;;;;;;;;;4993124;28;20254;-78
2023/06/27 12:26:06;;;;;;;1.80;0.30;;;;;;;;;;4993504;28;20422;-77
2023/06/27 12:28:32;;;;;;;2.30;0.57;;;;;;;;;;4993536;28;20168;-78
2023/06/27 12:31:04;;;;;;;1.30;0.40;;;;;;;;;;4989043;28;20274;-78
2023/06/27 12:33:30;;;;;;;2.13;0.37;;;;;;;;;;4991869;28;20408;-77
2023/06/27 12:35:56;;;;;;;2.10;0.20;;;;;;;;;;4992076;28;20463;-78
2023/06/27 12:38:22;;;;;;;2.67;0.60;;;;;;;;;;4991736;28;20190;-78
2023/06/27 12:40:51;;;;;;;3.30;0.80;;;;;;;;;;4991987;28;20411;-78
2023/06/27 12:43:17;;;;;;;3.30;0.67;;;;;;;;;;4992283;28;20212;-78
2023/06/27 12:45:42;;;;;;;1.80;0.20;;;;;;;;;;4992303;28;20453;-77
2023/06/27 12:48:08;;;;;;;1.70;0.30;;;;;;;;;;4992946;28;20274;-77
2023/06/27 12:50:34;;;;;;;1.40;0.40;;;;;;;;;;4992224;28;20175;-78
2023/06/27 12:53:00;;;;;;;4.43;0.70;;;;;;;;;;4992171;28;20179;-77
2023/06/27 12:55:29;;;;;;;2.40;0.40;;;;;;;;;;4992797;28;20178;-77
2023/06/27 12:57:55;;;;;;;2.70;0.30;;;;;;;;;;4992972;28;20680;-77
2023/06/27 13:00:22;;;;;;;0.97;0.27;;;;;;;;;;4992792;28;20408;-78
2023/06/27 13:02:49;;;;;;;1.87;0.43;;;;;;;;;;4992644;28;20240;-78
2023/06/27 13:05:14;;;;;;;2.30;0.20;;;;;;;;;;4992410;28;20415;-77
2023/06/27 13:10:10;;;;;;;0.77;0.20;;;;;;;;;;4991156;28;20554;-77
2023/06/27 13:12:36;;;;;;;3.17;0.53;;;;;;;;;;4991442;28;20430;-78
2023/06/27 13:15:02;;;;;;;2.07;0.50;;;;;;;;;;4992695;28;20421;-78
2023/06/27 13:17:31;;;;;;;1.27;0.20;;;;;;;;;;4992797;28;20242;-78
2023/06/27 13:19:57;;;;;;;2.17;0.20;;;;;;;;;;4992772;28;20415;-77
2023/06/27 13:22:27;;;;;;;2.60;0.77;;;;;;;;;;4992086;28;20423;-77
2023/06/27 13:24:53;;;;;;;2.60;0.53;;;;;;;;;;4993693;28;20403;-78
2023/06/27 13:27:19;;;;;;;3.00;0.80;;;;;;;;;;4999491;28;20519;-77
2023/06/27 13:29:45;;;;;;;1.00;0.30;;;;;;;;;;4996020;28;20507;-77
2023/06/27 13:32:14;;;;;;;1.70;0.40;;;;;;;;;;5011191;28;20184;-78
2023/06/27 13:34:40;;;;;;;2.83;0.40;;;;;;;;;;4996160;28;20421;-77
2023/06/27 13:37:06;;;;;;;1.60;0.30;;;;;;;;;;4995648;28;20481;-77
2023/06/27 13:39:32;;;;;;;2.73;0.30;;;;;;;;;;4995819;28;20422;-77
2023/06/27 13:41:58;;;;;;;1.60;0.23;;;;;;;;;;4995717;28;20425;-77
2023/06/27 13:44:24;;;;;;;2.13;0.43;;;;;;;;;;4995465;28;20180;-78
2023/06/27 13:46:50;;;;;;;1.90;0.30;;;;;;;;;;4995329;28;20182;-77
2023/06/27 13:49:17;;;;;;;1.90;0.20;;;;;;;;;;4994602;28;20234;-78
2023/06/27 13:51:43;;;;;;;1.90;0.30;;;;;;;;;;4995475;28;20236;-78
2023/06/27 13:54:09;;;;;;;2.73;0.37;;;;;;;;;;4995593;28;20431;-78
2023/06/27 13:56:35;;;;;;;1.13;0.47;;;;;;;;;;4995719;28;20214;-79
2023/06/27 13:59:00;;;;;;;1.63;0.67;;;;;;;;;;4995712;28;20434;-78
2023/06/27 14:01:27;;;;;;;3.13;0.80;;;;;;;;;;4995669;28;20911;-77
2023/06/27 14:03:55;;;;;;;2.10;0.30;;;;;;;;;;4995594;28;20418;-77
2023/06/27 14:06:21;;;;;;;2.10;0.33;;;;;;;;;;4994958;28;20426;-78
2023/06/27 14:08:47;;;;;;;1.90;0.20;;;;;;;;;;5011154;28;20458;-78
2023/06/27 14:11:17;;;;;;;1.60;0.80;;;;;;;;;;5015009;28;20178;-77
2023/06/27 14:13:44;;;;;;;4.90;0.50;;;;;;;;;;4999740;28;20175;-77
2023/06/27 14:16:11;;;;;;;1.07;0.47;;;;;;;;;;4995198;28;20462;-78
2023/06/27 14:18:37;;;;;;;2.13;0.40;;;;;;;;;;4997267;28;20422;-79
2023/06/27 14:21:07;;;;;;;3.27;0.40;;;;;;;;;;4995489;28;20505;-79
2023/06/27 14:23:34;;;;;;;1.63;0.30;;;;;;;;;;4994496;28;20415;-78
2023/06/27 14:26:00;;;;;;;3.23;0.73;;;;;;;;;;4995097;28;20927;-77
2023/06/27 14:28:25;;;;;;;2.23;0.50;;;;;;;;;;4994949;28;20425;-77
2023/06/27 14:30:51;;;;;;;3.63;0.33;;;;;;;;;;4995012;28;20421;-77
2023/06/27 14:33:21;;;;;;;3.17;0.40;;;;;;;;;;4993095;28;20416;-77
2023/06/27 14:35:47;;;;;;;5.30;0.53;;;;;;;;;;4993678;28;20481;-77
2023/06/27 14:38:13;;;;;;;2.23;0.43;;;;;;;;;;4993461;28;20446;-77
2023/06/27 14:40:38;;;;;;;1.77;0.50;;;;;;;;;;4994547;28;20441;-79
2023/06/27 14:43:04;;;;;;;4.90;0.73;;;;;;;;;;4993790;28;20183;-78